Time;durP1;ratioP1;P1;durP2;ratioP2;P2;SDS_P1;SDS_P2;PMS_P1;PMS_P2;Temp;Humidity;BMP_temperature;BMP_pressure;BME280_temperature;BME280_humidity;BME280_pressure;Samples;Min_cycle;Max_cycle;Signal;HPM_P1;HPM_P2
2021/03/30 00:01:25;;;;;;;26.40;13.20;;;;;;;27.77;29.67;158458.48;1679802;84;21727;-77
2021/03/30 00:03:58;;;;;;;27.60;13.70;;;;;;;27.85;29.63;158479.75;1698917;83;21186;-77
2021/03/30 00:06:30;;;;;;;27.75;14.53;;;;;;;27.86;29.57;158483.72;1694866;84;21346;-78
2021/03/30 00:09:02;;;;;;;25.02;13.38;;;;;;;27.81;29.57;158470.45;1691251;84;21878;-78
2021/03/30 00:11:36;;;;;;;25.45;13.72;;;;;;;27.76;29.61;158455.81;1694144;83;21166;-77
2021/03/30 00:14:09;;;;;;;31.77;15.40;;;;;;;27.75;29.63;158453.16;1688437;85;21847;-78
2021/03/30 00:16:42;;;;;;;30.17;14.30;;;;;;;27.68;29.68;158435.86;1669072;85;21324;-78
2021/03/30 00:19:15;;;;;;;33.42;15.70;;;;;;;27.68;29.70;158435.86;1679791;85;21328;-78
2021/03/30 00:21:47;;;;;;;33.30;15.28;;;;;;;27.66;29.61;158429.22;1669865;85;21190;-78
2021/03/30 00:24:21;;;;;;;29.20;14.20;;;;;;;27.60;29.67;158413.19;1679967;85;21371;-77
2021/03/30 00:26:53;;;;;;;29.10;14.90;;;;;;;27.61;29.63;158415.86;1669941;85;21379;-77
2021/03/30 00:29:25;;;;;;;29.10;14.53;;;;;;;27.62;29.62;158419.83;1680577;85;21911;-78
2021/03/30 00:31:58;;;;;;;29.67;14.28;;;;;;;27.59;29.73;158410.53;1678574;85;21776;-77
2021/03/30 00:34:31;;;;;;;30.27;14.40;;;;;;;27.67;29.61;158431.84;1681129;85;21225;-77
2021/03/30 00:37:03;;;;;;;27.73;14.30;;;;;;;27.52;29.60;158393.23;1684563;84;21304;-78
2021/03/30 00:39:35;;;;;;;30.80;15.60;;;;;;;27.60;29.51;158414.50;1680361;85;21305;-77
2021/03/30 00:42:09;;;;;;;27.48;13.00;;;;;;;27.61;29.48;158417.16;1671086;85;21324;-79
2021/03/30 00:44:41;;;;;;;27.10;13.78;;;;;;;27.67;29.40;158431.84;1679965;85;21212;-78
2021/03/30 00:47:16;;;;;;;27.85;13.78;;;;;;;27.69;29.36;158437.17;1680957;84;21328;-75
2021/03/30 00:49:49;;;;;;;27.17;14.40;;;;;;;27.70;29.23;158441.19;1718717;82;21558;-78
2021/03/30 00:52:22;;;;;;;23.18;12.70;;;;;;;27.66;29.31;158430.53;1721007;82;21344;-77
2021/03/30 00:55:13;;;;;;;27.75;12.73;;;;;;;27.60;29.41;158413.19;1721455;82;21399;-77
2021/03/30 00:57:47;;;;;;;25.43;13.98;;;;;;;27.65;29.34;158427.88;1721149;83;21149;-78
2021/03/30 01:00:21;;;;;;;25.60;12.85;;;;;;;27.70;29.20;158441.19;1720092;82;21391;-77
2021/03/30 01:02:53;;;;;;;23.55;12.10;;;;;;;27.75;29.00;158453.16;1732121;82;21847;-77
2021/03/30 01:05:25;;;;;;;24.43;13.22;;;;;;;27.83;28.92;158474.42;1685874;85;21391;-77
2021/03/30 01:08:30;;;;;;;23.87;11.93;;;;;;;27.85;28.83;158481.06;1686585;84;21213;-77
2021/03/30 01:11:10;;;;;;;29.45;12.88;;;;;;;27.99;28.68;158518.31;1683653;84;21285;-76
2021/03/30 01:13:57;;;;;;;24.77;13.32;;;;;;;28.21;28.48;158576.84;1694963;84;21741;-78
2021/03/30 01:16:37;;;;;;;22.45;11.95;;;;;;;28.16;28.50;158562.20;1684056;84;21233;-78
2021/03/30 01:20:03;;;;;;;22.67;12.57;;;;;;;28.13;28.49;158554.22;1715455;82;21367;-78
2021/03/30 01:23:19;;;;;;;20.50;11.60;;;;;;;28.16;28.45;158562.20;1715808;83;21818;-78
2021/03/30 01:26:09;;;;;;;24.77;11.73;;;;;;;28.13;28.38;158555.56;1711782;82;21658;-78
2021/03/30 01:29:15;;;;;;;23.22;12.10;;;;;;;28.09;28.39;158543.59;1723946;82;21338;-79
2021/03/30 01:31:42;;;;;;;23.42;12.13;;;;;;;28.03;28.47;158528.97;1691453;83;21879;-76
2021/03/30 01:34:16;;;;;;;25.27;13.18;;;;;;;28.01;28.45;158522.33;1687492;85;21209;-79
2021/03/30 01:36:48;;;;;;;24.70;12.35;;;;;;;27.94;28.50;158505.03;1679852;85;21194;-78
2021/03/30 01:39:20;;;;;;;22.22;12.20;;;;;;;27.89;28.42;158491.72;1673424;85;21441;-76
2021/03/30 01:41:53;;;;;;;22.58;11.93;;;;;;;27.86;28.43;158482.41;1675341;85;21206;-76
2021/03/30 01:44:26;;;;;;;23.62;11.48;;;;;;;27.87;28.39;158486.38;1676235;85;21336;-76
2021/03/30 01:46:59;;;;;;;23.75;11.88;;;;;;;27.84;28.36;158477.08;1686794;84;21367;-76
2021/03/30 01:49:31;;;;;;;19.75;11.30;;;;;;;27.87;28.33;158486.38;1698024;83;21395;-76
2021/03/30 01:52:04;;;;;;;22.62;10.98;;;;;;;27.85;28.33;158479.75;1732225;82;21824;-76
2021/03/30 01:54:38;;;;;;;23.62;11.03;;;;;;;27.86;28.28;158483.72;1681400;85;21203;-76
2021/03/30 01:57:11;;;;;;;21.97;12.07;;;;;;;27.76;28.25;158457.13;1680408;83;21337;-76
2021/03/30 01:59:44;;;;;;;18.05;10.93;;;;;;;27.71;28.29;158442.50;1687812;84;21815;-76
2021/03/30 02:02:16;;;;;;;19.92;11.28;;;;;;;27.67;28.23;158433.20;1666143;83;21320;-77
2021/03/30 02:04:50;;;;;;;20.43;11.30;;;;;;;27.66;28.22;158429.22;1724776;82;21315;-76
2021/03/30 02:07:25;;;;;;;20.68;10.40;;;;;;;27.64;28.19;158423.91;1724532;82;21384;-76
2021/03/30 02:10:02;;;;;;;25.80;11.78;;;;;;;27.59;28.21;158411.89;1721593;83;21199;-77
2021/03/30 02:12:35;;;;;;;18.42;10.85;;;;;;;27.64;28.17;158423.91;1720656;82;21226;-77
2021/03/30 02:15:10;;;;;;;22.25;10.95;;;;;;;27.66;28.17;158429.22;1720991;83;21185;-76
2021/03/30 02:18:09;;;;;;;20.70;10.88;;;;;;;27.65;28.15;158426.56;1692976;82;21374;-76
2021/03/30 02:20:43;;;;;;;20.62;10.48;;;;;;;28.23;27.64;158582.22;1734820;82;21386;-76
2021/03/30 02:23:21;;;;;;;23.80;11.90;;;;;;;28.19;27.65;158571.50;1731612;82;21373;-77
2021/03/30 02:25:56;;;;;;;21.48;10.70;;;;;;;28.21;27.63;158576.84;1726224;82;21322;-77
2021/03/30 02:28:45;;;;;;;20.70;11.90;;;;;;;28.25;27.56;158586.19;1720597;82;21356;-77
2021/03/30 02:31:17;;;;;;;19.23;10.25;;;;;;;28.25;27.53;158587.55;1721871;81;21875;-77
2021/03/30 02:33:51;;;;;;;19.23;9.70;;;;;;;28.29;27.51;158598.22;1722114;82;21352;-77
2021/03/30 02:36:25;;;;;;;18.48;10.05;;;;;;;28.31;27.50;158602.19;1709974;83;21863;-77
2021/03/30 02:39:07;;;;;;;20.32;9.80;;;;;;;28.32;27.46;158606.16;1730832;81;21183;-79
2021/03/30 02:41:40;;;;;;;18.67;9.63;;;;;;;28.35;27.28;158614.16;1713332;82;21341;-79
2021/03/30 02:44:13;;;;;;;20.88;9.90;;;;;;;28.39;27.23;158623.45;1733874;82;21796;-78
2021/03/30 02:46:45;;;;;;;19.20;10.63;;;;;;;28.39;27.24;158623.45;1729322;82;21311;-78
2021/03/30 02:49:21;;;;;;;20.02;9.83;;;;;;;28.42;27.15;158632.77;1720724;83;21213;-78
2021/03/30 02:51:54;;;;;;;17.05;9.93;;;;;;;28.43;27.15;158635.44;1708799;82;21257;-78
2021/03/30 02:54:27;;;;;;;20.27;9.90;;;;;;;28.14;27.33;158558.23;1702038;83;21831;-79
2021/03/30 02:57:02;;;;;;;17.00;9.58;;;;;;;28.01;27.43;158523.64;1705430;84;21185;-78
2021/03/30 02:59:34;;;;;;;18.85;9.53;;;;;;;28.02;27.31;158526.30;1658903;85;21339;-78
2021/03/30 03:02:07;;;;;;;16.55;9.40;;;;;;;27.80;27.47;158467.78;1628800;87;21175;-78
2021/03/30 03:04:39;;;;;;;18.37;9.20;;;;;;;27.91;27.34;158497.05;1628456;87;21190;-78
2021/03/30 03:07:12;;;;;;;19.77;9.58;;;;;;;27.94;27.29;158505.03;1660047;85;21225;-78
2021/03/30 03:09:45;;;;;;;16.17;9.13;;;;;;;27.97;27.19;158511.67;1649794;85;21250;-77
2021/03/30 03:12:18;;;;;;;15.83;7.62;;;;;;;27.92;27.20;158498.34;1646508;86;21258;-79
2021/03/30 03:14:51;;;;;;;17.65;8.65;;;;;;;27.97;27.15;158511.67;1635281;86;21199;-77
2021/03/30 03:17:24;;;;;;;16.57;8.10;;;;;;;27.97;27.12;158512.97;1652340;86;21332;-78
2021/03/30 03:19:56;;;;;;;16.65;8.20;;;;;;;27.95;27.13;158507.66;1647098;85;21191;-78
2021/03/30 03:22:28;;;;;;;19.65;8.40;;;;;;;27.95;27.16;158506.34;1702263;83;21502;-77
2021/03/30 03:25:00;;;;;;;17.37;8.50;;;;;;;27.95;27.12;158506.34;1657761;85;21384;-79
2021/03/30 03:27:36;;;;;;;17.00;8.55;;;;;;;28.02;27.05;158526.30;1660029;85;21217;-78
2021/03/30 03:30:10;;;;;;;14.47;7.60;;;;;;;28.02;27.07;158524.94;1669209;85;21245;-78
2021/03/30 03:32:43;;;;;;;14.93;9.23;;;;;;;28.15;26.94;158560.91;1661054;84;21242;-78
2021/03/30 03:35:15;;;;;;;16.48;8.38;;;;;;;28.19;26.84;158570.20;1702448;84;21193;-79
2021/03/30 03:37:48;;;;;;;16.45;8.88;;;;;;;28.29;26.68;158596.84;1660463;85;21192;-78
2021/03/30 03:40:20;;;;;;;16.10;9.23;;;;;;;28.38;26.53;158622.16;1662877;85;21469;-78
2021/03/30 03:42:53;;;;;;;14.07;8.48;;;;;;;28.41;26.46;158628.78;1630792;85;21395;-78
2021/03/30 03:45:25;;;;;;;14.40;8.15;;;;;;;28.54;26.34;158666.06;1721826;82;21859;-78
2021/03/30 03:47:57;;;;;;;14.35;8.05;;;;;;;28.62;26.24;158686.03;1705434;82;21225;-76
2021/03/30 03:50:30;;;;;;;15.50;8.43;;;;;;;28.73;26.14;158716.61;1700880;82;21704;-78
2021/03/30 03:53:02;;;;;;;12.98;8.40;;;;;;;28.52;26.21;158660.72;1722173;82;21197;-77
2021/03/30 03:55:36;;;;;;;12.88;7.72;;;;;;;28.50;26.30;158654.09;1726116;82;21149;-78
2021/03/30 03:58:09;;;;;;;18.10;7.85;;;;;;;28.46;26.27;158643.42;1725120;82;21394;-78
2021/03/30 04:00:41;;;;;;;20.72;7.85;;;;;;;28.50;26.28;158654.09;1717603;82;21869;-81
2021/03/30 04:03:29;;;;;;;13.85;8.13;;;;;;;28.53;26.26;158663.39;1704237;82;21203;-77
2021/03/30 04:06:11;;;;;;;18.73;8.63;;;;;;;28.52;26.27;158659.42;1702860;82;21177;-80
2021/03/30 04:08:54;;;;;;;13.65;6.95;;;;;;;28.52;26.29;158660.72;1703019;82;21272;-79
2021/03/30 04:11:28;;;;;;;16.70;8.00;;;;;;;28.52;26.21;158660.72;1698601;82;21339;-79
2021/03/30 04:14:00;;;;;;;18.30;8.68;;;;;;;28.45;26.20;158642.13;1687924;82;21247;-77
2021/03/30 04:16:33;;;;;;;17.52;8.23;;;;;;;28.42;26.20;158631.45;1683140;82;21330;-79
2021/03/30 04:19:14;;;;;;;15.98;7.25;;;;;;;28.38;26.28;158620.78;1717094;81;21229;-79
2021/03/30 04:21:47;;;;;;;15.38;8.73;;;;;;;28.44;26.26;158639.45;1702575;83;21319;-79
2021/03/30 04:24:19;;;;;;;16.20;7.85;;;;;;;28.53;26.11;158663.39;1713108;83;21295;-79
2021/03/30 04:26:52;;;;;;;14.63;8.58;;;;;;;28.44;26.19;158638.09;1704699;83;21834;-78
2021/03/30 04:29:25;;;;;;;16.15;8.25;;;;;;;28.44;26.26;158638.09;1719607;83;21311;-79
2021/03/30 04:31:57;;;;;;;16.07;9.35;;;;;;;28.43;26.32;158635.44;1717746;83;21236;-80
2021/03/30 04:34:30;;;;;;;20.43;8.75;;;;;;;28.42;26.26;158631.45;1714970;83;21859;-80
2021/03/30 04:37:03;;;;;;;19.07;9.25;;;;;;;28.43;26.26;158636.78;1676856;85;21372;-81
2021/03/30 04:39:35;;;;;;;22.48;9.38;;;;;;;28.45;26.29;158642.13;1717474;83;21305;-79
2021/03/30 04:42:08;;;;;;;19.62;9.40;;;;;;;28.47;26.35;158646.09;1717840;83;21319;-81
2021/03/30 04:44:41;;;;;;;15.98;8.78;;;;;;;28.51;26.25;158658.06;1716738;83;21391;-79
2021/03/30 04:47:13;;;;;;;13.72;8.05;;;;;;;28.46;26.29;158644.78;1716365;83;21692;-79
2021/03/30 04:49:45;;;;;;;13.98;7.95;;;;;;;28.56;26.18;158671.39;1702974;83;21343;-80
2021/03/30 04:52:18;;;;;;;14.60;8.48;;;;;;;28.57;26.19;158672.69;1707020;82;21362;-80
2021/03/30 04:54:51;;;;;;;17.62;9.10;;;;;;;28.47;26.26;158647.39;1705504;81;21268;-81
2021/03/30 04:57:23;;;;;;;20.35;8.03;;;;;;;28.52;26.26;158659.42;1706937;81;21378;-84
2021/03/30 04:59:56;;;;;;;16.02;7.53;;;;;;;28.27;26.45;158592.88;1708589;81;21326;-80
2021/03/30 05:02:28;;;;;;;15.95;8.43;;;;;;;28.44;26.28;158638.09;1705261;81;21350;-82
2021/03/30 05:05:00;;;;;;;15.65;8.13;;;;;;;28.49;26.25;158651.42;1695064;82;21822;-80
2021/03/30 05:07:33;;;;;;;17.70;7.67;;;;;;;28.47;26.14;158647.39;1696142;82;21418;-82
2021/03/30 05:10:07;;;;;;;13.53;7.15;;;;;;;28.47;26.15;158647.39;1703103;82;21196;-84
2021/03/30 05:12:40;;;;;;;17.15;7.80;;;;;;;28.53;26.14;158663.39;1696354;82;21181;-83
2021/03/30 05:15:13;;;;;;;19.12;8.68;;;;;;;28.53;26.18;158662.03;1697458;82;21409;-83
2021/03/30 05:17:46;;;;;;;13.03;8.23;;;;;;;28.53;26.09;158663.39;1700838;82;21422;-82
2021/03/30 05:20:18;;;;;;;15.83;8.90;;;;;;;28.56;26.16;158670.03;1696054;82;21358;-82
2021/03/30 05:22:51;;;;;;;13.70;7.92;;;;;;;28.63;26.13;158690.00;1692680;82;21910;-78
2021/03/30 05:25:23;;;;;;;23.32;10.65;;;;;;;28.71;26.05;158709.97;1696975;82;21909;-79
2021/03/30 05:27:56;;;;;;;16.65;8.73;;;;;;;28.73;25.92;158716.61;1705013;82;21315;-76
2021/03/30 05:30:28;;;;;;;14.07;8.05;;;;;;;28.84;25.85;158744.64;1707896;82;21414;-77
2021/03/30 05:33:00;;;;;;;15.03;8.28;;;;;;;28.89;25.89;158757.92;1698754;82;21252;-79
2021/03/30 05:35:34;;;;;;;15.90;8.45;;;;;;;28.97;25.75;158780.56;1705501;82;21972;-80
2021/03/30 05:38:08;;;;;;;16.05;7.90;;;;;;;28.91;25.86;158764.61;1702642;82;21335;-79
2021/03/30 05:40:40;;;;;;;15.28;7.95;;;;;;;28.93;25.77;158768.58;1698231;82;22253;-81
2021/03/30 05:43:13;;;;;;;18.77;7.10;;;;;;;28.94;25.40;158772.56;1698168;82;22321;-84
2021/03/30 05:45:47;;;;;;;13.85;7.90;;;;;;;28.93;25.41;158768.58;1699040;82;21256;-83
2021/03/30 05:48:19;;;;;;;15.90;7.42;;;;;;;28.97;25.29;158779.25;1706907;82;21225;-80
2021/03/30 05:50:52;;;;;;;20.17;8.48;;;;;;;29.03;25.32;158796.56;1695300;82;21287;-78
2021/03/30 05:53:26;;;;;;;13.22;7.28;;;;;;;29.14;25.09;158824.48;1695886;82;21948;-81
2021/03/30 05:56:05;;;;;;;16.32;7.95;;;;;;;29.09;25.06;158812.50;1683686;84;21422;-82
2021/03/30 05:58:38;;;;;;;13.95;7.62;;;;;;;29.26;24.98;158856.44;1689884;82;21315;-81
2021/03/30 06:01:13;;;;;;;13.05;7.55;;;;;;;29.24;24.78;158851.09;1686475;82;21220;-81
2021/03/30 06:03:46;;;;;;;15.68;9.33;;;;;;;29.18;24.92;158836.47;1684145;82;21378;-80
2021/03/30 06:06:18;;;;;;;14.95;8.30;;;;;;;29.15;24.94;158828.52;1688537;82;21840;-80
2021/03/30 06:08:50;;;;;;;17.60;9.10;;;;;;;29.21;24.87;158843.16;1686385;82;21291;-79
2021/03/30 06:11:23;;;;;;;15.93;7.67;;;;;;;29.27;25.14;158860.47;1685016;82;21192;-81
2021/03/30 06:13:57;;;;;;;14.15;8.10;;;;;;;29.36;25.12;158885.73;1687202;82;21289;-80
2021/03/30 06:16:37;;;;;;;12.50;7.53;;;;;;;29.50;25.11;158921.78;1688545;84;21346;-79
2021/03/30 06:19:18;;;;;;;11.75;6.87;;;;;;;29.61;24.78;158952.38;1687184;82;21181;-80
2021/03/30 06:22:02;;;;;;;14.28;7.17;;;;;;;29.69;24.73;158973.67;1689069;82;21173;-81
2021/03/30 06:24:34;;;;;;;15.58;7.22;;;;;;;29.84;24.66;159013.64;1687345;82;22801;-83
2021/03/30 06:27:13;;;;;;;11.68;6.55;;;;;;;29.87;24.55;159020.28;1684488;82;21383;-81
2021/03/30 06:29:45;;;;;;;13.20;6.55;;;;;;;29.82;24.31;159007.00;1686413;82;21434;-78
2021/03/30 06:32:20;;;;;;;12.20;7.35;;;;;;;29.77;24.35;158995.02;1685782;82;21194;-78
2021/03/30 06:34:58;;;;;;;11.97;6.90;;;;;;;29.78;24.31;158996.33;1685392;82;21379;-79
2021/03/30 06:37:40;;;;;;;12.78;6.60;;;;;;;29.73;24.21;158984.34;1689341;82;21250;-76
2021/03/30 06:40:38;;;;;;;11.97;7.33;;;;;;;29.86;24.00;159017.67;1700061;81;21184;-80
2021/03/30 06:46:12;;;;;;;13.58;6.30;;;;;;;29.93;24.07;159036.30;1695273;82;21366;-76
2021/03/30 06:48:45;;;;;;;11.75;6.25;;;;;;;30.03;23.94;159064.34;1676172;83;21453;-76
2021/03/30 06:51:20;;;;;;;11.20;6.50;;;;;;;30.05;24.02;159069.63;1707161;81;21715;-77
2021/03/30 06:53:52;;;;;;;12.95;6.45;;;;;;;30.03;23.99;159062.98;1724749;82;21271;-84
2021/03/30 06:56:46;;;;;;;11.28;6.25;;;;;;;30.13;24.03;159089.62;1721142;83;21415;-79
2021/03/30 06:59:18;;;;;;;12.80;6.45;;;;;;;30.18;23.76;159102.97;1713217;82;21843;-81
2021/03/30 07:01:54;;;;;;;14.15;5.72;;;;;;;30.16;23.57;159098.94;1721200;82;21295;-85
2021/03/30 07:04:27;;;;;;;10.43;5.50;;;;;;;30.23;23.45;159116.27;1723046;82;21367;-84
2021/03/30 07:06:59;;;;;;;10.50;5.67;;;;;;;30.18;23.09;159102.97;1725960;82;21859;-85
2021/03/30 07:09:32;;;;;;;11.50;6.25;;;;;;;30.27;22.93;159126.94;1733882;82;21363;-86
2021/03/30 07:12:07;;;;;;;12.37;5.72;;;;;;;30.37;22.78;159154.94;1721742;83;21240;-85
2021/03/30 07:14:39;;;;;;;8.18;5.03;;;;;;;30.44;22.70;159174.89;1722329;82;21252;-86
2021/03/30 07:17:13;;;;;;;9.38;4.80;;;;;;;30.45;22.59;159177.56;1722192;82;21146;-86
2021/03/30 07:19:45;;;;;;;9.85;4.83;;;;;;;30.59;22.58;159214.94;1722738;83;21784;-86
2021/03/30 07:22:17;;;;;;;9.08;4.70;;;;;;;30.71;22.38;159246.92;1723187;83;21312;-86
2021/03/30 07:25:07;;;;;;;9.30;4.83;;;;;;;30.72;22.21;159249.59;1701286;83;21858;-85
2021/03/30 07:28:04;;;;;;;9.88;4.83;;;;;;;30.83;22.05;159277.61;1722122;82;21308;-88
2021/03/30 07:30:39;;;;;;;7.67;4.28;;;;;;;30.78;22.10;159264.27;1725604;82;21308;-88
2021/03/30 07:33:37;;;;;;;7.97;3.95;;;;;;;31.02;21.80;159329.56;1729749;82;21822;-87
2021/03/30 07:36:11;;;;;;;8.20;4.55;;;;;;;31.39;21.47;159429.66;1725113;82;21316;-87
2021/03/30 07:38:49;;;;;;;8.90;3.83;;;;;;;31.53;21.64;159467.00;1734872;82;21415;-85
2021/03/30 07:41:23;;;;;;;16.67;5.00;;;;;;;31.71;21.30;159513.73;1711636;82;21835;-87
2021/03/30 07:43:57;;;;;;;6.58;3.92;;;;;;;31.88;21.41;159560.42;1725661;82;21303;-85
2021/03/30 07:46:30;;;;;;;8.05;3.55;;;;;;;32.01;21.66;159593.75;1712289;82;21178;-86
2021/03/30 07:49:04;;;;;;;10.38;5.00;;;;;;;32.15;21.08;159631.17;1733335;82;21847;-87
2021/03/30 07:51:43;;;;;;;10.05;4.30;;;;;;;32.03;21.01;159599.09;1731115;82;21805;-86
2021/03/30 07:54:16;;;;;;;6.05;4.03;;;;;;;31.96;20.77;159580.39;1726103;82;21253;-88
2021/03/30 07:56:51;;;;;;;8.15;4.08;;;;;;;31.85;21.06;159551.05;1735626;82;21939;-89
2021/03/30 07:59:49;;;;;;;5.97;3.45;;;;;;;31.81;20.85;159540.41;1738577;82;21367;-88
2021/03/30 08:02:27;;;;;;;7.92;3.45;;;;;;;31.57;20.92;159477.69;1727926;82;21225;-88
2021/03/30 08:05:12;;;;;;;5.37;3.37;;;;;;;31.50;20.23;159457.62;1733670;82;21336;-88
2021/03/30 08:07:50;;;;;;;7.28;3.50;;;;;;;31.42;20.47;159436.31;1709992;82;21420;-88
2021/03/30 08:10:37;;;;;;;5.47;3.70;;;;;;;31.48;20.09;159452.34;1709023;82;21182;-89
2021/03/30 08:13:31;;;;;;;5.50;3.80;;;;;;;31.43;20.20;159440.28;1680350;85;21378;-87
2021/03/30 08:16:09;;;;;;;4.17;2.58;;;;;;;31.39;19.75;159429.66;1669307;84;21193;-87
2021/03/30 08:18:45;;;;;;;4.45;2.90;;;;;;;31.35;19.48;159417.66;1702844;83;21237;-86
2021/03/30 08:21:18;;;;;;;5.67;3.65;;;;;;;31.26;19.52;159393.61;1702361;83;21407;-87
2021/03/30 08:24:04;;;;;;;4.67;2.77;;;;;;;31.23;19.82;159384.28;1650386;86;21198;-86
2021/03/30 08:26:39;;;;;;;4.42;2.72;;;;;;;31.28;19.81;159397.64;1654903;85;21317;-85
2021/03/30 08:29:27;;;;;;;4.33;3.17;;;;;;;31.39;19.34;159428.28;1658782;85;21751;-87
2021/03/30 08:32:00;;;;;;;4.42;2.45;;;;;;;31.48;19.63;159453.64;1678811;84;21191;-88
2021/03/30 08:34:43;;;;;;;8.53;3.75;;;;;;;31.65;19.47;159497.70;1690565;83;21367;-87
2021/03/30 08:37:17;;;;;;;6.15;2.50;;;;;;;31.77;19.27;159529.72;1708794;83;21269;-87
2021/03/30 08:39:50;;;;;;;3.27;2.30;;;;;;;31.68;19.04;159507.03;1721485;82;21155;-88
2021/03/30 08:42:22;;;;;;;6.00;3.08;;;;;;;31.86;18.50;159555.08;1710584;83;21721;-88
2021/03/30 08:45:05;;;;;;;4.45;2.65;;;;;;;32.55;18.26;159740.58;1715094;83;21171;-88
2021/03/30 08:47:44;;;;;;;3.22;2.50;;;;;;;33.82;17.64;160079.89;1722112;82;21367;-88
2021/03/30 08:50:25;;;;;;;4.78;2.60;;;;;;;34.86;17.37;160360.63;1709112;83;21704;-88
2021/03/30 08:53:00;;;;;;;6.70;2.55;;;;;;;36.07;16.90;160684.44;1709010;83;21905;-88
2021/03/30 08:55:39;;;;;;;6.45;2.90;;;;;;;36.93;16.76;160917.37;1713173;83;21733;-89
2021/03/30 08:58:10;;;;;;;6.65;3.65;;;;;;;38.02;15.97;161212.13;1712895;82;21209;-89
2021/03/30 09:00:42;;;;;;;7.05;3.55;;;;;;;37.90;15.95;161178.66;1712714;82;21325;-88
2021/03/30 09:03:15;;;;;;;7.15;3.08;;;;;;;37.44;15.92;161054.02;1726119;82;21317;-89
2021/03/30 09:05:47;;;;;;;11.28;4.47;;;;;;;36.69;16.25;160853.08;1726192;82;21335;-86
2021/03/30 09:08:42;;;;;;;8.98;4.33;;;;;;;36.08;16.81;160689.80;1736507;82;21320;-90
2021/03/30 09:11:25;;;;;;;7.05;3.33;;;;;;;35.25;17.43;160464.97;1735345;82;21879;-89
2021/03/30 09:14:05;;;;;;;6.85;3.70;;;;;;;34.83;17.72;160351.28;1735551;82;21201;-86
2021/03/30 09:16:38;;;;;;;5.85;3.80;;;;;;;34.95;17.49;160384.72;1709008;82;21371;-89
2021/03/30 09:19:30;;;;;;;9.40;4.12;;;;;;;35.39;17.08;160503.75;1733489;82;21316;-90
2021/03/30 09:22:48;;;;;;;10.28;5.08;;;;;;;35.40;17.28;160505.11;1738091;82;21332;-89
2021/03/30 09:27:40;;;;;;;10.25;5.62;;;;;;;36.66;16.95;160845.08;1721353;82;21326;-87
2021/03/30 09:30:17;;;;;;;9.30;4.72;;;;;;;37.56;16.81;161087.48;1725242;82;21182;-89
2021/03/30 09:32:51;;;;;;;7.08;4.25;;;;;;;38.42;16.16;161319.38;1735685;82;21312;-89
2021/03/30 09:35:29;;;;;;;11.05;4.33;;;;;;;39.36;16.22;161571.44;1734833;82;21184;-89
2021/03/30 09:38:03;;;;;;;9.43;5.10;;;;;;;40.28;15.59;161819.69;1726946;82;21344;-89
2021/03/30 09:40:43;;;;;;;9.60;4.40;;;;;;;41.01;14.96;162017.03;1731537;82;21355;-88
2021/03/30 09:43:19;;;;;;;8.85;4.53;;;;;;;41.47;14.76;162140.58;1722918;82;21359;-88
2021/03/30 09:45:53;;;;;;;8.10;4.37;;;;;;;42.00;14.87;162285.75;1728477;82;21851;-89
2021/03/30 09:48:26;;;;;;;9.28;4.30;;;;;;;42.78;14.44;162495.38;1736480;82;21384;-87
2021/03/30 09:50:59;;;;;;;5.90;4.30;;;;;;;43.60;14.33;162715.91;1736343;82;21308;-88
2021/03/30 09:53:42;;;;;;;6.22;4.20;;;;;;;44.85;13.98;163054.94;1736116;82;21816;-89
2021/03/30 09:56:31;;;;;;;16.67;4.87;;;;;;;45.82;13.59;163317.48;1734506;82;21871;-88
2021/03/30 09:59:04;;;;;;;7.12;4.00;;;;;;;46.62;13.42;163534.36;1735590;82;21432;-88
2021/03/30 10:01:36;;;;;;;8.63;4.17;;;;;;;46.92;13.19;163615.19;1735715;82;21261;-89
2021/03/30 10:04:08;;;;;;;8.48;3.90;;;;;;;47.80;13.22;163855.08;1735337;82;21300;-81
2021/03/30 10:06:41;;;;;;;6.95;3.83;;;;;;;49.01;12.61;164181.50;1724704;82;21355;-90
2021/03/30 10:09:13;;;;;;;6.92;4.10;;;;;;;49.63;12.15;164348.84;1721282;83;21346;-89
2021/03/30 10:11:47;;;;;;;6.05;3.60;;;;;;;49.61;12.14;164343.45;1721246;83;21189;-90
2021/03/30 10:14:24;;;;;;;6.58;3.98;;;;;;;49.66;12.01;164358.28;1721406;83;21209;-90
2021/03/30 10:16:58;;;;;;;6.12;3.72;;;;;;;49.89;12.03;164421.66;1722248;82;21332;-89
2021/03/30 10:19:32;;;;;;;5.75;4.12;;;;;;;50.58;11.83;164608.05;1704669;82;21645;-90
2021/03/30 10:22:08;;;;;;;6.60;4.33;;;;;;;51.23;11.51;164783.59;1712564;83;21868;-89
2021/03/30 10:24:41;;;;;;;6.65;5.10;;;;;;;50.96;11.63;164712.02;1723985;83;21216;-89
2021/03/30 10:27:13;;;;;;;6.40;4.85;;;;;;;50.72;11.56;164645.80;1722390;82;21316;-89
2021/03/30 10:29:46;;;;;;;11.28;5.10;;;;;;;50.16;11.73;164494.56;1706259;83;21810;-89
2021/03/30 10:32:18;;;;;;;7.00;4.47;;;;;;;49.44;11.88;164297.52;1738511;82;21364;-89
2021/03/30 10:34:50;;;;;;;6.35;4.05;;;;;;;48.99;11.92;164177.48;1734389;82;21356;-89
2021/03/30 10:37:23;;;;;;;7.55;4.28;;;;;;;48.87;11.92;164145.06;1725827;82;21300;-89
2021/03/30 10:40:00;;;;;;;6.75;4.20;;;;;;;49.33;11.92;164267.84;1706894;82;21685;-84
2021/03/30 10:42:37;;;;;;;9.20;5.28;;;;;;;50.45;11.88;164572.91;1726555;82;21371;-83
2021/03/30 10:45:12;;;;;;;9.55;5.55;;;;;;;51.73;11.52;164918.66;1722299;81;21256;-86
2021/03/30 10:47:48;;;;;;;8.63;5.08;;;;;;;52.64;11.17;165167.31;1701311;81;21815;-85
2021/03/30 10:50:21;;;;;;;9.08;4.62;;;;;;;53.13;10.93;165299.83;1694494;83;21886;-85
2021/03/30 10:52:53;;;;;;;6.97;5.05;;;;;;;53.21;10.91;165322.75;1699939;81;21335;-84
2021/03/30 10:55:29;;;;;;;7.95;4.92;;;;;;;52.59;10.65;165153.78;1704445;81;21326;-82
2021/03/30 10:58:11;;;;;;;8.05;5.17;;;;;;;51.63;10.81;164891.61;1698032;81;21283;-87
2021/03/30 11:00:37;;;;;;;8.25;4.78;;;;;;;51.07;10.99;164740.33;1702632;81;21449;-85
2021/03/30 11:03:11;;;;;;;6.22;4.65;;;;;;;51.36;11.25;164818.69;1708554;81;21200;-88
2021/03/30 11:05:44;;;;;;;8.10;5.22;;;;;;;52.28;11.24;165070.00;1698756;82;21331;-85
2021/03/30 11:08:17;;;;;;;6.25;5.17;;;;;;;53.13;10.90;165301.16;1694701;82;21374;-78
2021/03/30 11:10:49;;;;;;;6.50;4.90;;;;;;;52.99;10.62;165263.25;1698069;81;21913;-80
2021/03/30 11:13:23;;;;;;;11.25;5.00;;;;;;;52.26;10.89;165063.27;1697300;81;21245;-82
2021/03/30 11:15:56;;;;;;;6.47;4.47;;;;;;;51.74;10.89;164921.38;1700911;81;21212;-82
2021/03/30 11:18:29;;;;;;;7.95;5.20;;;;;;;51.12;10.92;164755.17;1700049;81;21366;-79
2021/03/30 11:21:04;;;;;;;6.15;4.25;;;;;;;50.33;11.04;164540.53;1696846;81;21818;-81
2021/03/30 11:23:38;;;;;;;6.60;4.45;;;;;;;49.73;11.17;164375.81;1697101;81;21334;-84
2021/03/30 11:26:14;;;;;;;7.30;5.47;;;;;;;49.51;11.42;164316.44;1699564;81;21711;-82
2021/03/30 11:28:48;;;;;;;6.37;4.80;;;;;;;49.46;11.34;164302.91;1702633;82;21319;-81
2021/03/30 11:31:41;;;;;;;8.90;4.37;;;;;;;50.02;11.45;164455.47;1697155;81;21387;-76
2021/03/30 11:34:48;;;;;;;6.25;4.53;;;;;;;50.50;11.33;164586.38;1665971;82;21272;-77
2021/03/30 11:36:39;;;;;;;5.80;4.50;;;;;;;50.85;11.36;164682.27;1668559;83;22317;-79
2021/03/30 11:39:07;;;;;;;7.90;4.67;;;;;;;51.41;11.33;164832.16;1649367;84;21222;-78
2021/03/30 11:41:41;;;;;;;9.83;5.20;;;;;;;52.79;11.01;165209.19;1694716;81;21256;-76
2021/03/30 11:44:15;;;;;;;10.45;5.33;;;;;;;54.68;10.32;165720.44;1699221;82;21863;-77
2021/03/30 11:46:47;;;;;;;7.42;4.90;;;;;;;53.38;10.38;165368.72;1695836;81;21342;-80
2021/03/30 11:49:21;;;;;;;9.00;5.33;;;;;;;52.38;10.55;165097.00;1692758;85;21378;-82
2021/03/30 11:51:53;;;;;;;8.30;5.22;;;;;;;51.75;10.61;164926.72;1717529;81;21185;-86
2021/03/30 11:54:26;;;;;;;10.23;5.53;;;;;;;50.95;10.90;164709.31;1677426;83;21275;-85
2021/03/30 11:56:59;;;;;;;6.97;5.05;;;;;;;51.30;11.01;164803.84;1686384;84;21293;-84
2021/03/30 11:59:32;;;;;;;8.30;4.67;;;;;;;51.91;11.03;164968.69;1676550;85;21305;-85
2021/03/30 12:02:05;;;;;;;6.03;5.17;;;;;;;52.89;10.64;165234.92;1640027;87;21234;-84
2021/03/30 12:04:37;;;;;;;8.15;5.12;;;;;;;52.88;10.64;165232.22;1686043;84;21818;-85